createdAt,value
2018-06-21T00:01:17.472Z,101310.56
2018-06-21T00:03:46.965Z,101316.48
2018-06-21T00:06:15.897Z,101315.34
2018-06-21T00:08:45.100Z,101309.39
2018-06-21T00:11:14.019Z,101304.48
2018-06-21T00:13:43.528Z,101304.48
2018-06-21T00:16:12.631Z,101308.95
2018-06-21T00:18:41.998Z,101308.05
2018-06-21T00:21:10.898Z,101300.17
2018-06-21T00:23:40.361Z,101312.42
2018-06-21T00:26:09.813Z,101299.16
2018-06-21T00:28:39.555Z,101300.30
2018-06-21T00:31:08.782Z,101295.95
2018-06-21T00:33:37.825Z,101289.08
2018-06-21T00:36:07.043Z,101292.84
2018-06-21T00:38:36.001Z,101283.82
2018-06-21T00:41:04.950Z,101286.56
2018-06-21T00:43:34.262Z,101280.61
2018-06-21T00:46:03.479Z,101279.83
2018-06-21T00:48:32.338Z,101270.80
2018-06-21T00:51:01.716Z,101273.55
2018-06-21T00:53:30.546Z,101270.92
2018-06-21T00:56:10.750Z,101272.41
2018-06-21T00:58:39.607Z,101270.22
2018-06-21T01:01:09.045Z,101265.31
2018-06-21T01:03:38.498Z,101270.81
2018-06-21T01:06:07.336Z,101256.30
2018-06-21T01:08:36.722Z,101263.71
2018-06-21T01:11:05.657Z,101260.41
2018-06-21T01:13:34.443Z,101261.91
2018-06-21T01:16:04.069Z,101263.27
2018-06-21T01:18:33.299Z,101259.63
2018-06-21T01:21:02.050Z,101269.25
2018-06-21T01:23:31.392Z,101258.97
2018-06-21T01:26:00.564Z,101250.27
2018-06-21T01:28:29.397Z,101245.72
2018-06-21T01:30:58.786Z,101243.17
2018-06-21T01:33:27.576Z,101240.11
2018-06-21T01:35:56.678Z,101239.06
2018-06-21T01:38:26.132Z,101239.29
2018-06-21T01:40:55.359Z,101240.54
2018-06-21T01:43:24.229Z,101229.68
2018-06-21T01:45:53.962Z,101225.80
2018-06-21T01:48:22.791Z,101239.88
2018-06-21T01:50:51.579Z,101229.68
2018-06-21T01:53:21.004Z,101237.48
2018-06-21T01:55:50.191Z,101237.13
2018-06-21T01:58:19.570Z,101232.31
2018-06-21T02:00:48.423Z,101232.00
2018-06-21T02:03:17.213Z,101225.27
2018-06-21T02:05:46.716Z,101230.55
2018-06-21T02:08:15.845Z,101239.69
2018-06-21T02:10:45.397Z,101236.05
2018-06-21T02:13:14.605Z,101222.20
2018-06-21T02:15:43.462Z,101220.40
2018-06-21T02:18:13.289Z,101216.95
2018-06-21T02:20:42.336Z,101207.47
2018-06-21T02:23:12.232Z,101209.03
2018-06-21T02:25:41.341Z,101203.70
2018-06-21T02:28:10.702Z,101203.11
2018-06-21T02:30:40.312Z,101195.79
2018-06-21T02:33:09.372Z,101191.59
2018-06-21T02:35:38.405Z,101189.75
2018-06-21T02:38:07.859Z,101190.11
2018-06-21T02:40:37.518Z,101190.55
2018-06-21T02:43:07.250Z,101196.61
2018-06-21T02:45:36.915Z,101199.83
2018-06-21T02:48:06.231Z,101196.18
2018-06-21T02:50:35.384Z,101194.45
2018-06-21T02:53:04.483Z,101186.34
2018-06-21T02:55:33.783Z,101187.84
2018-06-21T02:58:03.647Z,101188.06
2018-06-21T03:00:33.361Z,101191.27
2018-06-21T03:06:00.340Z,101186.39
2018-06-21T03:08:36.501Z,101175.55
2018-06-21T03:11:07.055Z,101183.88
2018-06-21T03:13:36.956Z,101182.49
2018-06-21T03:16:06.529Z,101181.69
2018-06-21T03:18:35.987Z,101185.47
2018-06-21T03:21:05.315Z,101188.66
2018-06-21T03:23:34.949Z,101178.84
2018-06-21T03:26:04.267Z,101185.54
2018-06-21T03:28:33.716Z,101190.87
2018-06-21T03:31:02.951Z,101189.61
2018-06-21T03:33:31.952Z,101187.79
2018-06-21T03:36:01.193Z,101181.73
2018-06-21T03:38:30.617Z,101175.47
2018-06-21T03:40:59.404Z,101170.54
2018-06-21T03:43:28.944Z,101174.55
2018-06-21T03:45:57.961Z,101187.90
2018-06-21T03:48:26.776Z,101185.95
2018-06-21T03:50:55.889Z,101182.95
2018-06-21T03:53:24.670Z,101175.08
2018-06-21T03:55:53.838Z,101173.23
2018-06-21T03:58:22.965Z,101188.77
2018-06-21T04:00:52.072Z,101193.22
2018-06-21T04:03:21.294Z,101197.43
2018-06-21T04:05:50.047Z,101201.53
2018-06-21T04:08:19.239Z,101205.44
2018-06-21T04:10:48.053Z,101201.44
2018-06-21T04:13:17.364Z,101189.77
2018-06-21T04:15:46.448Z,101184.84
2018-06-21T04:18:15.552Z,101185.66
2018-06-21T04:20:44.909Z,101188.12
2018-06-21T04:23:13.722Z,101197.23
2018-06-21T04:25:43.036Z,101201.77
2018-06-21T04:28:11.842Z,101189.04
2018-06-21T04:30:40.831Z,101187.77
2018-06-21T04:33:09.864Z,101173.27
2018-06-21T04:35:38.635Z,101171.90
2018-06-21T04:38:07.511Z,101186.30
2018-06-21T04:40:36.298Z,101183.56
2018-06-21T04:43:05.368Z,101187.77
2018-06-21T04:45:34.221Z,101188.20
2018-06-21T04:48:03.251Z,101195.73
2018-06-21T04:50:32.351Z,101197.84
2018-06-21T04:53:01.767Z,101198.71
2018-06-21T04:55:31.094Z,101199.55
2018-06-21T04:58:00.297Z,101207.16
2018-06-21T05:00:29.083Z,101208.69
2018-06-21T05:02:58.404Z,101210.17
2018-06-21T05:05:27.333Z,101217.34
2018-06-21T05:07:56.438Z,101213.92
2018-06-21T05:10:25.747Z,101216.41
2018-06-21T05:12:54.628Z,101221.54
2018-06-21T05:15:24.285Z,101221.09
2018-06-21T05:17:53.469Z,101223.77
2018-06-21T05:20:22.803Z,101222.55
2018-06-21T05:22:52.272Z,101226.47
2018-06-21T05:25:22.088Z,101226.22
2018-06-21T05:27:51.016Z,101232.66
2018-06-21T05:30:20.589Z,101228.56
2018-06-21T05:32:49.946Z,101226.98
2018-06-21T05:35:19.204Z,101241.72
2018-06-21T05:37:48.642Z,101236.59
2018-06-21T05:40:35.942Z,101232.88
2018-06-21T05:43:05.512Z,101239.73
2018-06-21T05:45:35.273Z,101243.75
2018-06-21T05:48:05.640Z,101249.21
2018-06-21T05:50:35.645Z,101252.04
2018-06-21T05:53:05.257Z,101244.45
2018-06-21T05:55:35.259Z,101252.02
2018-06-21T05:58:05.608Z,101244.78
2018-06-21T06:00:34.798Z,101256.84
2018-06-21T06:03:05.170Z,101257.42
2018-06-21T06:05:34.362Z,101255.44
2018-06-21T06:08:04.537Z,101255.89
2018-06-21T06:10:34.056Z,101248.21
2018-06-21T06:13:03.561Z,101259.14
2018-06-21T06:15:32.751Z,101254.70
2018-06-21T06:18:02.815Z,101253.09
2018-06-21T06:20:33.676Z,101250.78
2018-06-21T06:23:03.964Z,101253.91
2018-06-21T06:25:33.917Z,101251.22
2018-06-21T06:28:05.037Z,101253.13
2018-06-21T06:30:35.904Z,101254.25
2018-06-21T06:33:05.388Z,101246.30
2018-06-21T06:35:37.119Z,101243.23
2018-06-21T06:38:08.378Z,101243.23
2018-06-21T06:40:39.276Z,101242.99
2018-06-21T06:43:09.087Z,101239.08
2018-06-21T06:45:41.720Z,101241.62
2018-06-21T06:48:17.577Z,101247.25
2018-06-21T06:50:55.722Z,101257.17
2018-06-21T06:53:32.160Z,101264.52
2018-06-21T06:56:01.748Z,101266.28
2018-06-21T06:58:35.949Z,101268.59
2018-06-21T07:09:31.291Z,101271.48
2018-06-21T07:24:31.423Z,101265.79
2018-06-21T07:32:53.923Z,101273.20
2018-06-21T07:35:26.147Z,101273.45
2018-06-21T07:38:02.119Z,101269.25
2018-06-21T07:40:37.570Z,101268.13
2018-06-21T07:43:09.827Z,101264.39
2018-06-21T07:45:52.904Z,101270.64
2018-06-21T07:48:23.266Z,101268.92
2018-06-21T07:50:52.442Z,101270.98
2018-06-21T07:53:22.170Z,101269.50
2018-06-21T07:55:52.638Z,101270.02
2018-06-21T07:58:21.997Z,101270.90
2018-06-21T08:00:50.778Z,101276.31
2018-06-21T08:03:22.051Z,101273.39
2018-06-21T08:05:51.644Z,101292.86
2018-06-21T08:08:21.777Z,101298.34
2018-06-21T08:10:50.886Z,101298.98
2018-06-21T08:13:22.132Z,101298.67
2018-06-21T08:15:54.904Z,101298.11
2018-06-21T08:18:24.662Z,101301.95
2018-06-21T08:20:54.096Z,101303.86
2018-06-21T08:23:23.452Z,101309.73
2018-06-21T08:25:53.377Z,101309.27
2018-06-21T08:28:22.477Z,101316.22
2018-06-21T08:30:51.585Z,101337.37
2018-06-21T08:33:21.106Z,101352.47
2018-06-21T08:35:50.775Z,101373.33
2018-06-21T08:38:21.760Z,101360.70
2018-06-21T08:41:02.700Z,101356.09
2018-06-21T08:43:35.149Z,101361.94
2018-06-21T08:46:04.540Z,101346.69
2018-06-21T08:48:33.724Z,101358.74
2018-06-21T08:51:03.334Z,101353.36
2018-06-21T08:53:32.467Z,101353.70
2018-06-21T08:56:02.582Z,101346.67
2018-06-21T08:58:32.164Z,101351.72
2018-06-21T09:01:01.469Z,101351.98
2018-06-21T09:03:30.543Z,101351.17
2018-06-21T09:06:00.060Z,101358.91
2018-06-21T09:08:29.374Z,101366.52
2018-06-21T09:10:58.334Z,101363.84
2018-06-21T09:13:32.674Z,101386.83
2018-06-21T09:16:03.103Z,101380.70
2018-06-21T09:18:32.878Z,101382.64
2018-06-21T09:21:02.764Z,101383.06
2018-06-21T09:23:32.307Z,101379.56
2018-06-21T09:26:01.924Z,101386.31
2018-06-21T09:28:31.559Z,101389.75
2018-06-21T09:31:00.636Z,101392.24
2018-06-21T09:33:29.877Z,101417.50
2018-06-21T09:35:59.570Z,101400.17
2018-06-21T09:38:33.874Z,101409.95
2018-06-21T09:41:08.267Z,101406.92
2018-06-21T09:44:43.224Z,101419.69
2018-06-21T09:47:17.463Z,101426.37
2018-06-21T09:49:46.918Z,101444.38
2018-06-21T09:52:16.366Z,101431.62
2018-06-21T09:54:45.260Z,101435.20
2018-06-21T09:57:14.691Z,101439.59
2018-06-21T09:59:43.705Z,101443.30
2018-06-21T10:02:13.027Z,101442.02
2018-06-21T10:04:42.444Z,101443.99
2018-06-21T10:07:12.061Z,101463.66
2018-06-21T10:09:41.733Z,101459.20
2018-06-21T10:12:10.738Z,101462.45
2018-06-21T10:14:43.752Z,101473.08
2018-06-21T10:17:14.569Z,101470.36
2018-06-21T10:19:45.341Z,101476.28
2018-06-21T10:22:15.491Z,101481.14
2018-06-21T10:24:46.039Z,101485.31
2018-06-21T10:27:17.799Z,101487.72
2018-06-21T10:29:47.063Z,101495.66
2018-06-21T10:32:16.519Z,101500.41
2018-06-21T10:34:45.890Z,101496.78
2018-06-21T10:37:14.757Z,101511.58
2018-06-21T10:39:46.541Z,101516.13
2018-06-21T10:42:23.991Z,101507.84
2018-06-21T10:57:05.187Z,101501.57
2018-06-21T10:59:37.473Z,101503.73
2018-06-21T11:02:08.261Z,101495.19
2018-06-21T11:04:41.395Z,101520.09
2018-06-21T11:07:11.042Z,101523.11
2018-06-21T11:09:40.440Z,101524.48
2018-06-21T11:12:10.161Z,101532.22
2018-06-21T11:14:40.657Z,101526.89
2018-06-21T11:17:11.717Z,101522.88
2018-06-21T11:19:40.766Z,101528.55
2018-06-21T11:22:10.532Z,101531.73
2018-06-21T11:24:39.765Z,101529.78
2018-06-21T11:27:10.040Z,101544.59
2018-06-21T11:29:39.192Z,101542.53
2018-06-21T11:32:08.413Z,101554.80
2018-06-21T11:34:41.643Z,101558.78
2018-06-21T11:37:11.999Z,101563.33
2018-06-21T11:39:41.682Z,101565.38
2018-06-21T11:42:10.750Z,101572.13
2018-06-21T11:44:39.921Z,101559.39
2018-06-21T11:47:09.479Z,101561.41
2018-06-21T11:49:38.598Z,101567.78
2018-06-21T11:52:07.876Z,101574.06
2018-06-21T11:54:37.745Z,101558.17
2018-06-21T11:57:07.707Z,101563.91
2018-06-21T11:59:37.048Z,101573.09
2018-06-21T12:02:06.708Z,101579.83
2018-06-21T12:04:36.384Z,101590.60
2018-06-21T12:07:05.548Z,101589.80
2018-06-21T12:09:35.054Z,101602.48
2018-06-21T12:12:04.857Z,101599.44
2018-06-21T12:14:34.020Z,101613.80
2018-06-21T12:17:03.048Z,101609.84
2018-06-21T12:19:32.611Z,101606.91
2018-06-21T12:22:02.570Z,101612.48
2018-06-21T12:24:31.856Z,101613.78
2018-06-21T12:27:01.101Z,101611.95
2018-06-21T12:29:30.262Z,101627.11
2018-06-21T12:32:00.438Z,101621.03
2018-06-21T12:34:29.390Z,101618.44
2018-06-21T12:36:58.740Z,101617.66
2018-06-21T12:39:27.473Z,101629.91
2018-06-21T12:41:56.611Z,101634.47
2018-06-21T12:44:25.802Z,101635.91
2018-06-21T12:46:55.561Z,101634.47
2018-06-21T12:49:24.739Z,101640.20
2018-06-21T12:51:53.581Z,101629.46
2018-06-21T12:54:23.013Z,101636.28
2018-06-21T12:56:52.686Z,101646.75
2018-06-21T12:59:22.084Z,101644.77
2018-06-21T13:01:51.613Z,101632.48
2018-06-21T13:04:20.753Z,101650.67
2018-06-21T13:06:50.185Z,101651.01
2018-06-21T13:10:32.902Z,101651.61
2018-06-21T13:13:19.925Z,101659.63
2018-06-21T13:15:49.505Z,101660.22
2018-06-21T13:18:18.753Z,101684.41
2018-06-21T13:20:47.678Z,101698.66
2018-06-21T13:23:16.764Z,101685.78
2018-06-21T13:25:45.757Z,101694.67
2018-06-21T13:28:14.998Z,101701.86
2018-06-21T13:30:43.806Z,101693.25
2018-06-21T13:33:13.184Z,101697.34
2018-06-21T13:35:42.319Z,101697.00
2018-06-21T13:38:11.427Z,101704.60
2018-06-21T13:40:41.039Z,101719.88
2018-06-21T13:43:10.088Z,101706.23
2018-06-21T13:45:38.965Z,101715.64
2018-06-21T13:48:07.772Z,101724.86
2018-06-21T13:50:37.543Z,101722.83
2018-06-21T13:53:06.703Z,101722.15
2018-06-21T13:55:35.581Z,101733.81
2018-06-21T13:58:04.710Z,101734.61
2018-06-21T14:00:33.890Z,101734.64
2018-06-21T14:03:02.965Z,101742.28
2018-06-21T14:05:31.849Z,101749.47
2018-06-21T14:08:01.246Z,101755.41
2018-06-21T14:10:30.561Z,101762.33
2018-06-21T14:12:59.370Z,101772.77
2018-06-21T14:15:28.152Z,101785.16
2018-06-21T14:17:57.179Z,101780.39
2018-06-21T14:20:26.030Z,101788.81
2018-06-21T14:22:55.363Z,101780.50
2018-06-21T14:25:24.178Z,101785.70
2018-06-21T14:27:53.004Z,101798.73
2018-06-21T14:30:22.058Z,101787.74
2018-06-21T14:32:50.909Z,101791.95
2018-06-21T14:35:20.224Z,101789.98
2018-06-21T14:37:49.320Z,101795.81
2018-06-21T14:40:18.079Z,101797.43
2018-06-21T14:42:46.955Z,101795.42
2018-06-21T14:45:16.368Z,101787.86
2018-06-21T14:47:45.513Z,101795.05
2018-06-21T14:50:14.591Z,101809.61
2018-06-21T14:52:43.658Z,101818.86
2018-06-21T14:55:12.983Z,101820.94
2018-06-21T14:57:42.708Z,101811.30
2018-06-21T15:00:12.370Z,101812.35
2018-06-21T15:02:42.058Z,101815.51
2018-06-21T15:05:11.883Z,101810.11
2018-06-21T15:07:41.096Z,101813.96
2018-06-21T15:10:09.907Z,101809.98
2018-06-21T15:12:38.682Z,101820.02
2018-06-21T15:15:07.887Z,101826.87
2018-06-21T15:17:36.675Z,101840.81
2018-06-21T15:20:05.461Z,101829.91
2018-06-21T15:22:34.658Z,101847.16
2018-06-21T15:25:04.364Z,101850.17
2018-06-21T15:27:33.782Z,101845.06
2018-06-21T15:30:02.621Z,101853.70
2018-06-21T15:32:31.461Z,101854.51
2018-06-21T15:35:00.692Z,101849.50
2018-06-21T15:37:29.519Z,101856.93
2018-06-21T15:39:59.230Z,101882.55
2018-06-21T15:42:28.694Z,101878.40
2018-06-21T15:44:58.170Z,101873.17
2018-06-21T15:47:27.539Z,101867.05
2018-06-21T15:49:56.372Z,101871.45
2018-06-21T15:52:25.642Z,101868.31
2018-06-21T15:54:54.733Z,101870.44
2018-06-21T15:57:23.583Z,101869.55
2018-06-21T15:59:52.393Z,101872.61
2018-06-21T16:02:21.213Z,101872.84
2018-06-21T16:04:50.045Z,101880.61
2018-06-21T16:07:19.022Z,101873.62
2018-06-21T16:09:48.098Z,101871.17
2018-06-21T16:12:16.914Z,101873.09
2018-06-21T16:14:46.113Z,101883.40
2018-06-21T16:17:15.277Z,101880.38
2018-06-21T16:19:44.380Z,101897.52
2018-06-21T16:22:13.767Z,101886.65
2018-06-21T16:24:42.582Z,101890.03
2018-06-21T16:27:11.714Z,101907.78
2018-06-21T16:29:41.289Z,101927.53
2018-06-21T16:32:10.681Z,101927.70
2018-06-21T16:34:39.504Z,101921.80
2018-06-21T16:37:08.280Z,101923.48
2018-06-21T16:39:37.405Z,101923.98
2018-06-21T16:42:06.797Z,101914.92
2018-06-21T16:44:35.617Z,101916.54
2018-06-21T16:47:04.450Z,101916.09
2018-06-21T16:49:33.963Z,101916.21
2018-06-21T16:52:02.788Z,101914.97
2018-06-21T16:54:31.837Z,101913.30
2018-06-21T16:57:01.391Z,101910.44
2018-06-21T16:59:30.463Z,101911.06
2018-06-21T17:01:59.283Z,101907.95
2018-06-21T17:04:28.504Z,101903.55
2018-06-21T17:06:57.573Z,101919.16
2018-06-21T17:09:27.153Z,101922.94
2018-06-21T17:11:56.777Z,101916.81
2018-06-21T17:14:26.243Z,101931.69
2018-06-21T17:16:55.373Z,101938.79
2018-06-21T17:19:24.795Z,101933.39
2018-06-21T17:21:53.587Z,101937.58
2018-06-21T17:24:22.530Z,101952.31
2018-06-21T17:26:51.447Z,101965.59
2018-06-21T17:29:20.523Z,101995.36
2018-06-21T17:31:49.760Z,101976.34
2018-06-21T17:34:20.019Z,101966.02
2018-06-21T17:36:49.550Z,101958.05
2018-06-21T17:39:18.936Z,101952.30
2018-06-21T17:41:48.076Z,101951.72
2018-06-21T17:44:17.722Z,101952.28
2018-06-21T17:46:47.038Z,101948.14
2018-06-21T17:49:16.274Z,101951.00
2018-06-21T17:51:51.301Z,101951.00
2018-06-21T17:54:21.079Z,101956.13
2018-06-21T17:56:50.708Z,101956.33
2018-06-21T17:59:19.879Z,101950.09
2018-06-21T18:01:49.506Z,101951.00
2018-06-21T18:04:19.410Z,101960.50
2018-06-21T18:06:48.523Z,101947.70
2018-06-21T18:09:17.681Z,101957.88
2018-06-21T18:11:47.121Z,101963.64
2018-06-21T18:14:16.302Z,101966.72
2018-06-21T18:16:45.762Z,101972.02
2018-06-21T18:19:15.375Z,101983.23
2018-06-21T18:21:44.714Z,101978.36
2018-06-21T18:24:13.889Z,101979.55
2018-06-21T18:26:47.267Z,101980.14
2018-06-21T18:29:33.842Z,101973.33
2018-06-21T18:32:37.637Z,101966.42
2018-06-21T18:48:16.455Z,101966.11
2018-06-21T19:01:07.411Z,101964.96
2018-06-21T19:04:15.701Z,101955.37
2018-06-21T19:07:00.996Z,101958.56
2018-06-21T19:21:28.609Z,101961.58
2018-06-21T19:24:03.755Z,101958.42
2018-06-21T19:26:37.846Z,101959.23
2018-06-21T19:29:21.118Z,101960.69
2018-06-21T19:31:58.009Z,101961.02
2018-06-21T19:34:39.948Z,101954.09
2018-06-21T19:37:20.790Z,101965.53
2018-06-21T19:40:05.178Z,101965.56
2018-06-21T19:54:43.691Z,101984.20
2018-06-21T19:57:20.153Z,101978.89
2018-06-21T20:01:16.034Z,101978.36
2018-06-21T20:04:06.400Z,101983.23
2018-06-21T20:07:00.396Z,101987.43
2018-06-21T20:09:51.912Z,101976.88
2018-06-21T20:12:42.703Z,101983.67
2018-06-21T20:17:28.423Z,101976.93
2018-06-21T20:20:02.668Z,101979.36
2018-06-21T20:22:33.264Z,101979.12
2018-06-21T20:25:05.605Z,101984.27
2018-06-21T20:27:39.309Z,101979.41
2018-06-21T20:30:14.131Z,101977.78
2018-06-21T20:32:50.784Z,101981.87
2018-06-21T20:35:30.919Z,101974.27
2018-06-21T20:38:06.084Z,101979.79
2018-06-21T20:41:02.771Z,101976.37
2018-06-21T20:43:35.276Z,101976.77
2018-06-21T20:46:07.865Z,101989.30
2018-06-21T20:48:48.288Z,101989.92
2018-06-21T20:54:49.816Z,101968.55
2018-06-21T20:57:20.516Z,101968.81
2018-06-21T21:39:54.974Z,101956.73
2018-06-21T21:43:11.875Z,101958.38
2018-06-21T21:49:21.559Z,101944.52
2018-06-21T21:52:06.005Z,101948.03
2018-06-21T21:54:41.143Z,101941.53
2018-06-21T22:05:58.407Z,101942.07
2018-06-21T22:10:19.272Z,101943.43
2018-06-21T22:13:04.788Z,101939.89
2018-06-21T22:24:06.841Z,101934.53
2018-06-21T22:27:06.290Z,101935.04
2018-06-21T22:57:45.624Z,101918.20
2018-06-21T23:58:23.170Z,101858.55
